Time;durP1;ratioP1;P1;durP2;ratioP2;P2;SDS_P1;SDS_P2;PMS_P1;PMS_P2;Temp;Humidity;BMP_temperature;BMP_pressure;BME280_temperature;BME280_humidity;BME280_pressure;Samples;Min_cycle;Max_cycle;Signal;HPM_P1;HPM_P2
2022/06/27 00:00:33;;;;;;;7.00;2.63;;;25.60;97.40;;;;;;5033210;28;20260;-50
2022/06/27 00:03:02;;;;;;;5.77;2.13;;;25.60;97.30;;;;;;5032749;28;20691;-50
2022/06/27 00:05:29;;;;;;;3.90;1.80;;;25.60;97.00;;;;;;5029632;28;20294;-51
2022/06/27 00:07:56;;;;;;;8.53;2.23;;;25.70;97.20;;;;;;5031482;28;20227;-50
2022/06/27 00:10:23;;;;;;;6.93;2.60;;;25.70;97.20;;;;;;5026400;28;20203;-50
2022/06/27 00:12:50;;;;;;;8.87;2.57;;;25.70;96.70;;;;;;5020959;28;20238;-51
2022/06/27 00:15:17;;;;;;;8.40;2.27;;;25.80;97.10;;;;;;5030721;28;20230;-50
2022/06/27 00:17:44;;;;;;;6.37;2.13;;;25.80;97.10;;;;;;5033237;28;20202;-50
2022/06/27 00:20:13;;;;;;;6.73;3.10;;;25.80;96.90;;;;;;5033614;28;20206;-51
2022/06/27 00:22:40;;;;;;;7.90;2.40;;;25.90;97.30;;;;;;5032888;28;20206;-50
2022/06/27 00:25:09;;;;;;;5.47;2.07;;;25.90;97.00;;;;;;5026370;28;20191;-51
2022/06/27 00:27:36;;;;;;;5.32;2.50;;;25.90;97.10;;;;;;5031698;28;20202;-51
2022/06/27 00:30:04;;;;;;;5.75;1.95;;;25.90;97.20;;;;;;5032267;28;20668;-51
2022/06/27 00:32:31;;;;;;;4.97;2.27;;;25.90;97.10;;;;;;5032384;28;20668;-51
2022/06/27 00:34:58;;;;;;;9.37;2.77;;;25.80;97.40;;;;;;5031115;28;20218;-50
2022/06/27 00:37:26;;;;;;;9.00;1.63;;;25.80;97.70;;;;;;5032833;28;20766;-51
2022/06/27 00:39:53;;;;;;;2.90;1.43;;;25.90;99.90;;;;;;5024693;28;20226;-50
2022/06/27 00:42:20;;;;;;;6.60;1.20;;;25.60;99.90;;;;;;5023039;28;20665;-50
2022/06/27 00:44:47;;;;;;;2.40;1.63;;;25.20;99.90;;;;;;5031017;28;20549;-50
2022/06/27 00:47:15;;;;;;;5.10;1.83;;;24.70;99.90;;;;;;5032915;28;20202;-50
2022/06/27 00:49:42;;;;;;;4.83;1.50;;;24.30;99.90;;;;;;5023614;28;20642;-50
2022/06/27 00:52:11;;;;;;;1.93;1.77;;;24.00;99.90;;;;;;5018077;28;20615;-50
2022/06/27 00:54:41;;;;;;;2.07;1.97;;;23.90;99.90;;;;;;5031285;28;20850;-50
2022/06/27 00:57:09;;;;;;;2.47;2.47;;;23.70;99.90;;;;;;5030258;28;20202;-50
2022/06/27 00:59:36;;;;;;;1.93;1.87;;;23.60;99.90;;;;;;5032246;28;20312;-50
2022/06/27 01:02:04;;;;;;;1.80;1.80;;;23.60;99.90;;;;;;5022445;28;20211;-50
2022/06/27 01:04:31;;;;;;;1.53;1.37;;;23.60;99.90;;;;;;5030159;28;20209;-50
2022/06/27 01:06:59;;;;;;;1.73;1.60;;;23.50;99.90;;;;;;5031399;28;20299;-50
2022/06/27 01:09:26;;;;;;;2.03;1.87;;;23.50;99.90;;;;;;5030996;28;20292;-50
2022/06/27 01:11:54;;;;;;;1.40;1.40;;;23.40;99.90;;;;;;5029388;28;20665;-51
2022/06/27 01:14:21;;;;;;;2.13;1.70;;;23.40;99.90;;;;;;5032271;28;20614;-50
2022/06/27 01:16:48;;;;;;;1.43;1.33;;;23.50;99.90;;;;;;5023489;28;20254;-50
2022/06/27 01:19:17;;;;;;;1.80;1.67;;;23.70;99.90;;;;;;5027392;28;20230;-50
2022/06/27 01:21:46;;;;;;;1.63;1.47;;;23.60;99.90;;;;;;5025901;28;20734;-50
2022/06/27 01:24:15;;;;;;;1.70;1.60;;;23.60;99.90;;;;;;5024596;28;20649;-50
2022/06/27 01:26:43;;;;;;;1.60;1.53;;;23.50;99.90;;;;;;5022250;28;20229;-50
2022/06/27 01:29:11;;;;;;;2.50;1.37;;;23.40;99.90;;;;;;5030897;28;20223;-50
2022/06/27 01:31:39;;;;;;;2.50;1.50;;;23.20;99.90;;;;;;5031351;28;20233;-50
2022/06/27 01:34:07;;;;;;;1.43;1.33;;;23.10;99.90;;;;;;5030076;28;20241;-50
2022/06/27 01:36:43;;;;;;;1.13;1.13;;;23.10;99.90;;;;;;5030446;28;20219;-50
2022/06/27 01:39:12;;;;;;;1.40;1.30;;;23.10;99.90;;;;;;5031759;28;20222;-50
2022/06/27 01:41:41;;;;;;;1.50;1.03;;;23.10;99.90;;;;;;5022860;28;20628;-50
2022/06/27 01:44:09;;;;;;;1.30;1.30;;;23.00;99.90;;;;;;5030794;28;20743;-50
2022/06/27 01:46:41;;;;;;;1.37;1.37;;;23.00;99.90;;;;;;5029363;28;20751;-50
2022/06/27 01:49:08;;;;;;;1.67;1.67;;;23.00;99.90;;;;;;5030535;28;20696;-50
2022/06/27 01:51:36;;;;;;;2.53;1.50;;;23.00;99.90;;;;;;5030018;28;20256;-50
2022/06/27 01:54:04;;;;;;;1.67;1.53;;;23.00;99.90;;;;;;5023037;28;20199;-50
2022/06/27 01:56:31;;;;;;;1.70;1.53;;;23.00;99.90;;;;;;5024413;28;20640;-51
2022/06/27 01:59:00;;;;;;;1.60;1.60;;;22.90;99.90;;;;;;5027021;28;20670;-51
2022/06/27 02:01:27;;;;;;;1.40;1.40;;;22.90;99.90;;;;;;5024157;28;20214;-51
2022/06/27 02:03:56;;;;;;;1.37;1.37;;;22.80;99.90;;;;;;5026767;28;20198;-51
2022/06/27 02:06:24;;;;;;;1.30;1.30;;;22.70;99.90;;;;;;5017685;28;20701;-51
2022/06/27 02:08:52;;;;;;;1.20;1.20;;;22.60;99.90;;;;;;5012027;28;20219;-51
2022/06/27 02:11:21;;;;;;;1.53;1.23;;;22.60;99.90;;;;;;5014373;28;20300;-50
2022/06/27 02:13:48;;;;;;;1.63;0.97;;;22.60;99.90;;;;;;5030425;28;20249;-51
2022/06/27 02:16:18;;;;;;;1.53;1.37;;;22.50;99.90;;;;;;5031512;28;20215;-50
2022/06/27 02:18:46;;;;;;;1.50;1.40;;;22.50;99.90;;;;;;5028377;28;20222;-50
2022/06/27 02:21:15;;;;;;;2.70;1.60;;;22.60;99.90;;;;;;5030887;28;20627;-50
2022/06/27 02:23:43;;;;;;;1.40;1.30;;;22.50;99.90;;;;;;5019998;28;20245;-50
2022/06/27 02:26:12;;;;;;;1.37;1.30;;;22.60;99.90;;;;;;5023254;28;20226;-50
2022/06/27 02:28:39;;;;;;;2.00;1.70;;;22.50;99.90;;;;;;5031307;28;20735;-50
2022/06/27 02:31:07;;;;;;;2.60;1.73;;;22.30;99.90;;;;;;5020812;28;20269;-50
2022/06/27 02:33:37;;;;;;;2.77;1.90;;;22.20;99.90;;;;;;5031017;28;20233;-50
2022/06/27 02:36:06;;;;;;;1.63;1.53;;;22.20;99.90;;;;;;5030518;28;20303;-50
2022/06/27 02:38:33;;;;;;;1.80;1.70;;;22.20;99.90;;;;;;5030315;28;20230;-50
2022/06/27 02:41:03;;;;;;;1.90;1.80;;;22.10;99.90;;;;;;5031277;28;20257;-50
2022/06/27 02:43:34;;;;;;;5.27;2.40;;;22.10;99.90;;;;;;5030976;28;20206;-50
2022/06/27 02:46:01;;;;;;;1.63;1.50;;;22.00;99.90;;;;;;5024997;28;20199;-50
2022/06/27 02:48:31;;;;;;;1.57;1.47;;;22.00;99.90;;;;;;5029616;28;20219;-51
2022/06/27 02:51:05;;;;;;;1.57;1.50;;;21.90;99.90;;;;;;5022752;28;20237;-50
2022/06/27 02:53:35;;;;;;;1.97;1.80;;;21.90;99.90;;;;;;5032892;28;20300;-50
2022/06/27 02:56:04;;;;;;;2.10;1.87;;;21.90;99.90;;;;;;5022026;28;20223;-50
2022/06/27 02:58:37;;;;;;;2.07;1.83;;;21.90;99.90;;;;;;5056382;22;20237;-55
2022/06/27 03:01:05;;;;;;;1.60;1.60;;;21.80;99.90;;;;;;5031278;28;20195;-55
2022/06/27 03:03:33;;;;;;;1.97;1.97;;;21.70;99.90;;;;;;5025717;28;20226;-55
2022/06/27 03:06:04;;;;;;;2.60;1.87;;;21.70;99.90;;;;;;5015685;28;20195;-55
2022/06/27 03:08:38;;;;;;;3.33;1.60;;;21.70;99.90;;;;;;5020904;28;20640;-55
2022/06/27 03:11:06;;;;;;;2.07;1.97;;;21.60;99.90;;;;;;5011127;28;20215;-55
2022/06/27 03:13:33;;;;;;;2.17;2.00;;;21.60;99.90;;;;;;5028874;28;20230;-55
2022/06/27 03:16:01;;;;;;;2.00;2.00;;;21.50;99.90;;;;;;5021414;28;20638;-55
2022/06/27 03:18:28;;;;;;;1.77;1.77;;;21.50;99.90;;;;;;5014154;28;20811;-55
2022/06/27 03:20:55;;;;;;;2.10;1.47;;;21.40;99.90;;;;;;5014130;28;20207;-55
2022/06/27 03:23:28;;;;;;;2.60;2.50;;;21.50;99.90;;;;;;5020887;28;20202;-55
2022/06/27 03:25:55;;;;;;;1.90;1.90;;;21.40;99.90;;;;;;5028417;28;20281;-55
2022/06/27 03:28:22;;;;;;;1.83;1.73;;;21.40;99.90;;;;;;5013020;28;20234;-55
2022/06/27 03:30:50;;;;;;;1.80;1.63;;;21.40;99.90;;;;;;5014186;28;20275;-55
2022/06/27 03:33:18;;;;;;;1.67;1.57;;;21.30;99.90;;;;;;5011897;28;20285;-55
2022/06/27 03:35:45;;;;;;;2.30;1.90;;;21.30;99.90;;;;;;5004088;28;20326;-55
2022/06/27 03:38:14;;;;;;;1.47;1.47;;;21.30;99.90;;;;;;5007022;28;20203;-55
2022/06/27 03:40:42;;;;;;;2.00;1.90;;;21.30;99.90;;;;;;5009603;28;20211;-55
2022/06/27 03:43:12;;;;;;;2.63;1.20;;;21.30;99.90;;;;;;5007581;28;20258;-55
2022/06/27 03:45:39;;;;;;;1.40;1.40;;;21.30;99.90;;;;;;4995770;28;20192;-55
2022/06/27 03:48:08;;;;;;;1.33;1.33;;;21.30;99.90;;;;;;4993354;28;20258;-55
2022/06/27 03:50:35;;;;;;;1.70;1.60;;;21.30;99.90;;;;;;4993400;28;20262;-56
2022/06/27 03:53:03;;;;;;;1.53;1.10;;;21.30;99.90;;;;;;4993439;28;20227;-55
2022/06/27 03:55:30;;;;;;;1.43;1.33;;;21.30;99.90;;;;;;4999780;28;20203;-55
2022/06/27 03:57:59;;;;;;;1.10;1.00;;;21.10;99.90;;;;;;5000987;28;20203;-55
2022/06/27 04:00:31;;;;;;;1.00;1.00;;;21.20;99.90;;;;;;4999814;28;20287;-55
2022/06/27 04:02:59;;;;;;;1.10;1.10;;;21.20;99.90;;;;;;5000345;28;20302;-55
2022/06/27 04:05:26;;;;;;;0.80;0.80;;;21.10;99.90;;;;;;4992361;28;20274;-55
2022/06/27 04:07:53;;;;;;;1.00;0.93;;;21.20;99.90;;;;;;4993348;28;20633;-55
2022/06/27 04:10:20;;;;;;;2.33;0.80;;;21.20;99.90;;;;;;5003097;28;20262;-55
2022/06/27 04:12:47;;;;;;;1.73;1.43;;;21.20;99.90;;;;;;5006208;28;20274;-55
2022/06/27 04:15:15;;;;;;;1.67;0.70;;;21.10;99.90;;;;;;4999926;28;20243;-55
2022/06/27 04:17:44;;;;;;;1.00;1.00;;;21.10;99.90;;;;;;5000479;28;20223;-55
2022/06/27 04:20:12;;;;;;;0.70;0.70;;;21.10;99.90;;;;;;5009134;28;20290;-55
2022/06/27 04:22:39;;;;;;;1.73;0.63;;;21.00;99.90;;;;;;5008727;28;20888;-55
2022/06/27 04:25:07;;;;;;;0.63;0.63;;;21.00;99.90;;;;;;5007121;28;20208;-55
2022/06/27 04:27:34;;;;;;;0.57;0.57;;;21.00;99.90;;;;;;4994299;28;20228;-55
2022/06/27 04:30:02;;;;;;;0.80;0.80;;;20.90;99.90;;;;;;5003716;28;20273;-55
2022/06/27 04:32:30;;;;;;;1.83;0.70;;;20.90;99.90;;;;;;5008048;28;20203;-55
2022/06/27 04:34:57;;;;;;;0.70;0.70;;;21.00;99.90;;;;;;5011151;28;20286;-55
2022/06/27 04:37:25;;;;;;;0.60;0.60;;;20.90;99.90;;;;;;5007195;28;20223;-55
2022/06/27 04:39:52;;;;;;;1.83;1.20;;;21.00;99.90;;;;;;5008417;28;20306;-55
2022/06/27 04:42:20;;;;;;;1.13;0.70;;;21.00;99.90;;;;;;5009984;28;20196;-55
2022/06/27 04:44:47;;;;;;;2.83;0.90;;;21.20;99.90;;;;;;5010783;28;20195;-55
2022/06/27 04:47:14;;;;;;;0.63;0.63;;;21.20;99.90;;;;;;5000833;28;20286;-55
2022/06/27 04:49:43;;;;;;;0.60;0.60;;;21.30;99.90;;;;;;5005959;28;20297;-55
2022/06/27 04:52:12;;;;;;;3.27;0.70;;;21.40;99.90;;;;;;5009048;28;20195;-56
2022/06/27 04:54:39;;;;;;;1.73;0.70;;;21.40;99.90;;;;;;5011392;28;20206;-56
2022/06/27 04:57:07;;;;;;;0.73;0.60;;;21.60;99.90;;;;;;5023502;28;20227;-55
2022/06/27 04:59:34;;;;;;;1.47;0.87;;;21.70;99.90;;;;;;5019557;28;20276;-55
2022/06/27 05:02:01;;;;;;;0.93;0.70;;;21.70;99.90;;;;;;5006577;28;20566;-55
2022/06/27 05:04:30;;;;;;;0.70;0.70;;;21.70;99.90;;;;;;5020777;28;20202;-55
2022/06/27 05:06:58;;;;;;;0.63;0.63;;;21.90;99.90;;;;;;5008113;28;20289;-55
2022/06/27 05:09:26;;;;;;;7.07;0.87;;;22.00;99.90;;;;;;5008004;28;20223;-55
2022/06/27 05:11:54;;;;;;;2.40;1.00;;;22.30;99.90;;;;;;5018285;28;20208;-55
2022/06/27 05:14:21;;;;;;;2.90;1.23;;;22.60;99.90;;;;;;5022973;28;20223;-55
2022/06/27 05:16:48;;;;;;;1.10;1.10;;;22.90;99.90;;;;;;5019456;28;20314;-55
2022/06/27 05:19:15;;;;;;;0.60;0.60;;;23.40;99.90;;;;;;5010369;28;20727;-55
2022/06/27 05:21:43;;;;;;;0.70;0.70;;;23.70;99.90;;;;;;5012898;28;20282;-55
2022/06/27 05:24:12;;;;;;;1.50;0.93;;;24.40;99.90;;;;;;5006454;28;20199;-55
2022/06/27 05:26:39;;;;;;;3.43;1.47;;;25.20;99.90;;;;;;5010307;28;20210;-56
2022/06/27 05:29:06;;;;;;;0.70;0.70;;;26.00;99.90;;;;;;5012538;28;20310;-56
2022/06/27 05:31:33;;;;;;;0.77;0.40;;;26.70;99.90;;;;;;5002424;28;20558;-56
2022/06/27 05:34:00;;;;;;;1.97;0.50;;;27.30;99.90;;;;;;5000360;28;20199;-56
2022/06/27 05:36:27;;;;;;;2.20;0.50;;;27.40;99.90;;;;;;5006679;28;20729;-55
2022/06/27 05:38:55;;;;;;;1.47;0.53;;;27.60;99.90;;;;;;5009775;28;20288;-56
2022/06/27 05:41:23;;;;;;;1.73;0.70;;;27.80;99.90;;;;;;5012705;28;20210;-55
2022/06/27 05:43:50;;;;;;;0.80;0.60;;;27.60;99.90;;;;;;5023815;28;20639;-56
2022/06/27 05:46:19;;;;;;;1.33;0.50;;;28.00;99.90;;;;;;5010780;28;20216;-56
2022/06/27 05:48:46;;;;;;;1.27;0.57;;;27.60;99.90;;;;;;5006422;28;20238;-56
2022/06/27 05:51:13;;;;;;;0.63;0.47;;;28.10;99.90;;;;;;5001670;28;20258;-56
2022/06/27 05:53:40;;;;;;;0.52;0.52;;;28.00;99.90;;;;;;5004179;28;20208;-56
2022/06/27 05:56:08;;;;;;;0.50;0.50;;;28.20;99.90;;;;;;5007115;28;21211;-56
2022/06/27 05:58:38;;;;;;;1.23;0.50;;;28.50;99.90;;;;;;5008061;28;20242;-56
2022/06/27 06:01:06;;;;;;;1.10;0.43;;;28.60;99.90;;;;;;5017376;28;20734;-56
2022/06/27 06:03:33;;;;;;;1.02;1.02;;;29.30;99.90;;;;;;5016037;28;20235;-56
2022/06/27 06:06:00;;;;;;;0.43;0.43;;;29.70;99.90;;;;;;5010869;28;20573;-56
2022/06/27 06:08:27;;;;;;;0.70;0.70;;;29.50;99.90;;;;;;5016070;28;20269;-56
2022/06/27 06:10:54;;;;;;;0.50;0.50;;;30.00;99.90;;;;;;5004088;28;20215;-56
2022/06/27 06:13:22;;;;;;;0.55;0.50;;;30.30;99.90;;;;;;4991389;28;20261;-56
2022/06/27 06:15:50;;;;;;;2.65;0.60;;;29.70;99.90;;;;;;4997355;28;20547;-56
2022/06/27 06:18:17;;;;;;;0.70;0.70;;;29.30;99.90;;;;;;5001435;28;20223;-56
2022/06/27 06:20:44;;;;;;;0.63;0.57;;;29.50;99.90;;;;;;5008285;28;20199;-55
2022/06/27 06:23:12;;;;;;;0.90;0.90;;;29.70;99.90;;;;;;5010385;28;20229;-57
2022/06/27 06:25:39;;;;;;;0.60;0.60;;;30.10;99.90;;;;;;5003370;28;20195;-56
2022/06/27 06:28:06;;;;;;;4.32;0.70;;;29.50;99.90;;;;;;5009762;28;20194;-56
2022/06/27 06:30:33;;;;;;;0.70;0.70;;;29.70;99.90;;;;;;5000185;28;20459;-56
2022/06/27 06:33:03;;;;;;;0.50;0.50;;;29.60;99.90;;;;;;5008674;28;20203;-56
2022/06/27 06:35:30;;;;;;;1.27;0.55;;;30.00;99.90;;;;;;5007802;28;20752;-56
2022/06/27 06:37:58;;;;;;;0.60;0.60;;;30.00;99.90;;;;;;5002857;28;20234;-56
2022/06/27 06:40:26;;;;;;;1.23;0.65;;;29.70;99.90;;;;;;5004311;28;20196;-56
2022/06/27 06:42:53;;;;;;;0.63;0.63;;;29.90;99.90;;;;;;5005461;28;20262;-56
2022/06/27 06:45:21;;;;;;;0.68;0.60;;;29.60;99.90;;;;;;5004743;28;20219;-56
2022/06/27 06:47:49;;;;;;;0.73;0.60;;;29.70;99.90;;;;;;5003028;28;20200;-56
2022/06/27 06:50:19;;;;;;;1.85;0.80;;;30.10;99.90;;;;;;5007818;28;20310;-56
2022/06/27 06:52:49;;;;;;;1.75;0.60;;;30.40;99.90;;;;;;5002260;28;20199;-56
2022/06/27 06:55:17;;;;;;;0.93;0.50;;;29.40;99.90;;;;;;5002009;28;20223;-57
2022/06/27 06:57:44;;;;;;;0.80;0.80;;;29.90;99.90;;;;;;4993927;28;20212;-56
2022/06/27 07:00:12;;;;;;;1.92;1.00;;;29.60;99.90;;;;;;4996018;28;20334;-56
2022/06/27 07:02:40;;;;;;;1.17;0.52;;;29.30;99.90;;;;;;5011725;28;20251;-57
2022/06/27 07:05:11;;;;;;;0.50;0.50;;;29.70;99.90;;;;;;5010575;28;20552;-56
2022/06/27 07:07:41;;;;;;;0.82;0.80;;;30.20;99.90;;;;;;4999865;28;20207;-56
2022/06/27 07:10:09;;;;;;;2.35;0.77;;;29.30;99.90;;;;;;4993871;28;20706;-56
2022/06/27 07:12:36;;;;;;;1.35;0.50;;;28.90;99.90;;;;;;4993583;28;20202;-56
2022/06/27 07:15:05;;;;;;;3.85;0.80;;;28.80;99.90;;;;;;4993742;28;20196;-56
2022/06/27 07:17:40;;;;;;;4.22;0.90;;;29.30;99.90;;;;;;5000354;28;20355;-56
2022/06/27 07:20:09;;;;;;;1.05;0.50;;;29.60;99.90;;;;;;5001823;28;20228;-56
2022/06/27 07:22:37;;;;;;;1.02;1.02;;;30.10;99.90;;;;;;5005979;28;20207;-56
2022/06/27 07:25:06;;;;;;;0.70;0.70;;;30.50;99.90;;;;;;4998097;28;20201;-56
2022/06/27 07:27:34;;;;;;;1.38;0.80;;;30.20;99.90;;;;;;4993827;28;20192;-56
2022/06/27 07:30:03;;;;;;;0.50;0.50;;;30.10;99.90;;;;;;4993629;28;20220;-56
2022/06/27 07:32:31;;;;;;;1.08;0.70;;;30.20;99.90;;;;;;4994010;28;20398;-56
2022/06/27 07:34:59;;;;;;;1.85;0.63;;;30.70;99.90;;;;;;5004690;28;20214;-57
2022/06/27 07:37:27;;;;;;;2.65;0.85;;;31.30;99.90;;;;;;5005790;28;20257;-56
2022/06/27 07:39:54;;;;;;;1.50;1.38;;;30.80;99.90;;;;;;5012385;28;20219;-57
2022/06/27 07:42:23;;;;;;;1.00;0.60;;;30.70;99.90;;;;;;5010454;28;20206;-56
2022/06/27 07:44:50;;;;;;;1.38;0.70;;;31.00;99.90;;;;;;5000322;28;20965;-55
2022/06/27 07:47:17;;;;;;;0.90;0.90;;;31.40;99.90;;;;;;4993621;28;20196;-56
2022/06/27 07:49:44;;;;;;;3.70;1.02;;;32.10;99.90;;;;;;4994852;28;20302;-56
2022/06/27 07:52:12;;;;;;;1.75;0.70;;;32.50;99.90;;;;;;5007321;28;20237;-57
2022/06/27 07:54:39;;;;;;;1.63;0.95;;;33.30;99.90;;;;;;4995945;28;20207;-56
2022/06/27 07:57:06;;;;;;;1.05;0.90;;;32.50;99.90;;;;;;5008914;28;20215;-56
2022/06/27 07:59:36;;;;;;;1.23;1.10;;;31.90;99.90;;;;;;5011378;28;20219;-56
2022/06/27 08:02:04;;;;;;;1.98;0.77;;;31.90;99.90;;;;;;5011012;28;20207;-59
2022/06/27 08:04:31;;;;;;;3.85;1.50;;;32.20;99.90;;;;;;5008969;28;20207;-57
2022/06/27 08:06:58;;;;;;;1.23;0.75;;;32.70;99.90;;;;;;5002753;28;20251;-56
2022/06/27 08:09:26;;;;;;;2.17;0.90;;;32.60;99.90;;;;;;4993019;28;20718;-56
2022/06/27 08:11:54;;;;;;;2.00;0.80;;;33.10;99.90;;;;;;4992550;28;20208;-58
2022/06/27 08:14:21;;;;;;;0.95;0.95;;;33.20;99.90;;;;;;5011045;28;20255;-56
2022/06/27 08:16:51;;;;;;;0.55;0.55;;;33.10;99.90;;;;;;5012470;28;20231;-59
2022/06/27 08:19:19;;;;;;;0.68;0.68;;;33.70;99.90;;;;;;5013308;28;20227;-58
2022/06/27 08:21:47;;;;;;;1.23;0.65;;;33.20;99.90;;;;;;5017344;28;20312;-56
2022/06/27 08:24:17;;;;;;;1.40;0.88;;;33.10;99.90;;;;;;5016141;28;20289;-56
2022/06/27 08:26:46;;;;;;;1.20;1.10;;;33.00;99.90;;;;;;5023505;28;20214;-57
2022/06/27 08:29:15;;;;;;;1.88;0.82;;;33.20;99.90;;;;;;5020348;28;20318;-58
2022/06/27 08:31:44;;;;;;;1.33;1.05;;;32.60;99.90;;;;;;5019967;28;20556;-58
2022/06/27 08:34:14;;;;;;;1.13;1.13;;;31.80;99.90;;;;;;5005301;28;20211;-55
2022/06/27 08:36:41;;;;;;;1.25;1.25;;;31.00;99.90;;;;;;5012317;28;20217;-58
2022/06/27 08:39:16;;;;;;;0.80;0.80;;;31.40;99.90;;;;;;5014173;28;20261;-56
2022/06/27 08:41:45;;;;;;;1.00;0.98;;;31.60;99.90;;;;;;5010538;28;20684;-58
2022/06/27 08:44:13;;;;;;;1.20;1.20;;;31.90;99.90;;;;;;5004764;28;20679;-57
2022/06/27 08:46:41;;;;;;;1.10;1.10;;;31.70;99.90;;;;;;5022535;28;20234;-58
2022/06/27 08:49:09;;;;;;;2.83;0.95;;;32.00;99.90;;;;;;5014780;28;20705;-58
2022/06/27 08:51:38;;;;;;;1.67;1.40;;;31.90;99.90;;;;;;5021668;28;20210;-58
2022/06/27 08:54:05;;;;;;;0.85;0.85;;;31.70;99.90;;;;;;5013750;28;20248;-58
2022/06/27 08:56:32;;;;;;;1.33;1.20;;;32.20;99.90;;;;;;5018552;28;20195;-58
2022/06/27 08:58:59;;;;;;;2.78;0.90;;;32.70;99.90;;;;;;5048751;22;20230;-52
2022/06/27 09:01:30;;;;;;;1.05;1.05;;;32.50;99.90;;;;;;5025406;28;20235;-52
2022/06/27 09:04:01;;;;;;;0.80;0.80;;;32.60;99.90;;;;;;5020609;28;20203;-52
2022/06/27 09:06:33;;;;;;;1.42;1.00;;;33.10;99.90;;;;;;5021558;28;20211;-52
2022/06/27 09:09:06;;;;;;;0.80;0.80;;;32.20;99.90;;;;;;5030727;28;20223;-52
2022/06/27 09:11:35;;;;;;;1.00;1.00;;;31.40;99.90;;;;;;5008401;28;20212;-52
2022/06/27 09:14:05;;;;;;;1.95;1.10;;;31.30;99.90;;;;;;5006128;28;20286;-52
2022/06/27 09:16:32;;;;;;;3.83;1.05;;;31.90;99.90;;;;;;5008578;28;20203;-52
2022/06/27 09:18:59;;;;;;;0.88;0.75;;;32.20;99.90;;;;;;5001561;28;20719;-52
2022/06/27 09:21:27;;;;;;;0.95;0.95;;;32.70;99.90;;;;;;5012772;28;20558;-52
2022/06/27 09:23:58;;;;;;;0.88;0.88;;;33.80;99.90;;;;;;5021278;28;20198;-52
2022/06/27 09:26:28;;;;;;;1.02;1.02;;;33.50;99.90;;;;;;5019328;28;20207;-52
2022/06/27 09:29:00;;;;;;;1.83;1.10;;;32.60;99.90;;;;;;5005229;28;20216;-52
2022/06/27 09:31:32;;;;;;;1.77;1.20;;;32.00;99.90;;;;;;5001711;28;20230;-51
2022/06/27 09:34:08;;;;;;;1.30;1.00;;;31.40;99.90;;;;;;4991671;28;20907;-52
2022/06/27 09:36:37;;;;;;;1.05;1.05;;;31.80;99.90;;;;;;5008469;28;20237;-51
2022/06/27 09:39:07;;;;;;;1.20;0.90;;;32.00;99.90;;;;;;5010967;28;20229;-52
2022/06/27 09:41:36;;;;;;;3.03;1.00;;;32.50;99.90;;;;;;5017500;28;20202;-52
2022/06/27 09:44:06;;;;;;;1.08;0.90;;;31.90;99.90;;;;;;5017441;28;20233;-52
2022/06/27 09:46:38;;;;;;;7.68;1.00;;;32.50;99.90;;;;;;5006860;28;20265;-52
2022/06/27 09:49:12;;;;;;;1.35;0.90;;;32.90;99.90;;;;;;5011936;28;20215;-51
2022/06/27 09:51:40;;;;;;;2.45;1.50;;;32.70;99.90;;;;;;5018073;28;20216;-52
2022/06/27 09:54:11;;;;;;;1.08;1.00;;;32.60;99.90;;;;;;5023480;28;20230;-51
2022/06/27 09:56:41;;;;;;;1.52;1.05;;;33.30;99.90;;;;;;5031482;28;20209;-52
2022/06/27 09:59:09;;;;;;;0.98;0.90;;;33.20;99.90;;;;;;5031449;28;20317;-52
2022/06/27 10:01:37;;;;;;;1.20;1.20;;;32.90;99.90;;;;;;5014292;28;20203;-51
2022/06/27 10:04:05;;;;;;;0.70;0.70;;;32.60;99.90;;;;;;5014192;28;20210;-52
2022/06/27 10:06:33;;;;;;;0.80;0.80;;;32.20;99.90;;;;;;5031533;28;20206;-51
2022/06/27 10:09:01;;;;;;;1.15;1.15;;;31.40;99.90;;;;;;5027919;28;20223;-52
2022/06/27 10:11:28;;;;;;;0.70;0.70;;;30.60;99.90;;;;;;5011942;28;20669;-52
2022/06/27 10:14:19;;;;;;;0.88;0.88;;;31.30;99.90;;;;;;5021420;28;20206;-52
2022/06/27 10:17:05;;;;;;;2.38;1.05;;;31.90;99.90;;;;;;5025357;28;20203;-52
2022/06/27 10:19:32;;;;;;;0.70;0.70;;;31.90;99.90;;;;;;5023005;28;20230;-52
2022/06/27 10:21:59;;;;;;;1.38;0.85;;;32.00;99.90;;;;;;5021554;28;20206;-51
2022/06/27 10:24:35;;;;;;;1.02;1.02;;;31.40;99.90;;;;;;5018557;28;20223;-49
2022/06/27 10:27:06;;;;;;;2.03;1.20;;;31.30;99.90;;;;;;5022233;28;20206;-49
2022/06/27 10:29:48;;;;;;;1.00;1.00;;;30.00;99.90;;;;;;5031328;28;20586;-49
2022/06/27 10:32:46;;;;;;;1.00;1.00;;;28.60;99.90;;;;;;5020772;28;20277;-49
2022/06/27 10:35:15;;;;;;;8.77;1.98;;;28.20;99.90;;;;;;5007791;28;20213;-49
2022/06/27 10:37:43;;;;;;;1.20;1.17;;;28.20;99.90;;;;;;5017109;28;20625;-49
2022/06/27 10:40:51;;;;;;;5.35;1.63;;;28.40;99.90;;;;;;5018302;28;20227;-49
2022/06/27 10:43:41;;;;;;;1.20;1.20;;;28.50;99.90;;;;;;5011873;28;20697;-49
2022/06/27 10:46:44;;;;;;;1.25;1.13;;;28.40;99.90;;;;;;5011489;28;20284;-49
2022/06/27 10:49:25;;;;;;;1.05;1.05;;;28.20;99.90;;;;;;5011384;28;20240;-49
2022/06/27 10:51:53;;;;;;;0.80;0.80;;;27.60;99.90;;;;;;5016461;28;20208;-49
2022/06/27 10:54:20;;;;;;;1.05;1.05;;;27.40;99.90;;;;;;5024339;28;20271;-49
2022/06/27 10:56:49;;;;;;;1.45;0.77;;;27.10;99.90;;;;;;5031014;28;20289;-49
2022/06/27 11:00:04;;;;;;;0.93;0.80;;;27.20;99.90;;;;;;5013723;28;20607;-49
2022/06/27 11:02:34;;;;;;;1.17;0.80;;;27.00;99.90;;;;;;5013115;28;20276;-49
2022/06/27 11:05:01;;;;;;;0.82;0.82;;;27.10;99.90;;;;;;5019264;28;20199;-49
2022/06/27 11:07:30;;;;;;;2.25;0.80;;;27.20;99.90;;;;;;5011067;28;20215;-49
2022/06/27 11:09:57;;;;;;;0.70;0.70;;;27.30;99.90;;;;;;5012126;28;20215;-49
2022/06/27 11:12:32;;;;;;;0.73;0.73;;;27.00;99.90;;;;;;5016247;28;20206;-49
2022/06/27 11:15:01;;;;;;;1.33;1.33;;;26.90;99.90;;;;;;5015711;28;20265;-49
2022/06/27 11:17:37;;;;;;;0.90;0.90;;;26.70;99.90;;;;;;5014664;28;20206;-49
2022/06/27 11:20:23;;;;;;;2.00;0.80;;;26.10;99.90;;;;;;5016307;28;20222;-49
2022/06/27 11:22:55;;;;;;;0.80;0.80;;;26.00;99.90;;;;;;5006001;28;20203;-49
2022/06/27 11:25:23;;;;;;;2.17;0.70;;;26.10;99.90;;;;;;5034407;28;20203;-49
2022/06/27 11:27:53;;;;;;;1.80;0.93;;;26.00;99.90;;;;;;5034317;28;20582;-49
2022/06/27 11:33:26;;;;;;;1.03;1.00;;;25.80;99.90;;;;;;5008131;28;20214;-49
2022/06/27 11:35:55;;;;;;;0.90;0.90;;;25.80;99.90;;;;;;5014213;28;20290;-49
2022/06/27 11:38:27;;;;;;;1.00;1.00;;;25.80;99.90;;;;;;5014193;28;20293;-49
2022/06/27 11:41:08;;;;;;;1.50;1.03;;;26.00;99.90;;;;;;5021410;28;20203;-49
2022/06/27 11:43:57;;;;;;;1.20;1.20;;;26.10;99.90;;;;;;5021575;28;20198;-49
2022/06/27 11:46:32;;;;;;;0.93;0.90;;;26.20;99.90;;;;;;5005816;28;20203;-49
2022/06/27 11:49:06;;;;;;;0.98;0.98;;;26.40;99.90;;;;;;5016965;28;20721;-49
2022/06/27 11:51:36;;;;;;;1.38;0.98;;;26.60;99.90;;;;;;5015826;28;20684;-49
2022/06/27 11:54:07;;;;;;;1.30;0.97;;;26.60;99.90;;;;;;5022107;28;20198;-49
2022/06/27 11:56:37;;;;;;;1.38;1.20;;;26.80;99.90;;;;;;5017354;28;20206;-49
2022/06/27 11:59:06;;;;;;;1.20;1.20;;;27.00;99.90;;;;;;5009075;28;20290;-49
2022/06/27 12:01:38;;;;;;;1.42;1.02;;;27.40;99.90;;;;;;5005251;28;20203;-49
2022/06/27 12:04:15;;;;;;;0.98;0.98;;;27.70;99.90;;;;;;5014345;28;20198;-49
2022/06/27 12:06:47;;;;;;;2.10;1.05;;;28.10;99.90;;;;;;5016431;28;20210;-49
2022/06/27 12:09:15;;;;;;;1.00;1.00;;;28.20;99.90;;;;;;4994176;28;20228;-49
2022/06/27 12:11:57;;;;;;;1.58;1.35;;;28.60;99.90;;;;;;5004020;28;20864;-49
2022/06/27 12:14:25;;;;;;;0.88;0.88;;;28.60;99.90;;;;;;5011080;28;20264;-49
2022/06/27 12:16:54;;;;;;;1.00;1.00;;;28.70;99.90;;;;;;5025132;28;20198;-49
2022/06/27 12:19:23;;;;;;;1.58;1.38;;;28.50;99.90;;;;;;5027973;28;20665;-49
2022/06/27 12:21:51;;;;;;;3.20;1.70;;;28.40;99.90;;;;;;5013012;28;20203;-49
2022/06/27 12:24:18;;;;;;;1.58;1.48;;;28.20;99.90;;;;;;5022566;28;20206;-49
2022/06/27 12:26:45;;;;;;;1.60;1.60;;;28.10;99.90;;;;;;5024118;28;20252;-49
2022/06/27 12:29:13;;;;;;;1.75;1.75;;;28.00;99.90;;;;;;5014843;28;20589;-49
2022/06/27 12:31:41;;;;;;;1.88;1.77;;;27.70;99.90;;;;;;5010577;28;20843;-49
2022/06/27 12:34:08;;;;;;;1.48;1.48;;;27.40;99.90;;;;;;5024604;28;20232;-49
2022/06/27 12:36:37;;;;;;;8.82;1.98;;;27.30;99.90;;;;;;5018615;28;20598;-48
2022/06/27 12:39:06;;;;;;;1.85;1.10;;;27.30;99.90;;;;;;5027815;28;20652;-49
2022/06/27 12:41:34;;;;;;;1.08;1.05;;;27.10;99.90;;;;;;5026206;28;20203;-49
2022/06/27 12:44:01;;;;;;;1.40;1.40;;;27.10;99.90;;;;;;5024508;28;20600;-49
2022/06/27 12:46:28;;;;;;;1.95;1.10;;;27.10;99.90;;;;;;5012622;28;20211;-49
2022/06/27 12:48:56;;;;;;;2.60;1.55;;;27.20;99.90;;;;;;5012874;28;20219;-48
2022/06/27 12:51:25;;;;;;;2.22;1.77;;;27.30;99.90;;;;;;5016798;28;20620;-48
2022/06/27 12:53:59;;;;;;;2.00;1.90;;;27.30;99.90;;;;;;5024094;28;20241;-48
2022/06/27 12:56:26;;;;;;;2.70;1.40;;;27.20;99.90;;;;;;5032429;28;20293;-48
2022/06/27 12:58:53;;;;;;;2.97;1.70;;;27.40;99.90;;;;;;5029762;28;20321;-49
2022/06/27 13:01:21;;;;;;;3.83;2.30;;;27.00;99.90;;;;;;5006074;28;20265;-48